sensor_id;sensor_type;location;lat;lon;timestamp;pressure;altitude;pressure_sealevel;temperature;humidity
74982;BME280;63532;50.766;18.944;2024-02-15T17:28:34;99160.50;;;5.85;80.39
74982;BME280;63532;50.766;18.944;2024-02-15T17:31:39;99156.78;;;5.77;80.50
74982;BME280;63532;50.766;18.944;2024-02-15T17:34:44;99167.56;;;5.75;80.28
74982;BME280;63532;50.766;18.944;2024-02-15T17:37:48;99164.31;;;5.72;80.71
74982;BME280;63532;50.766;18.944;2024-02-15T17:40:53;99165.41;;;5.69;80.55
74982;BME280;63532;50.766;18.944;2024-02-15T17:43:59;99171.81;;;5.67;80.53
74982;BME280;63532;50.766;18.944;2024-02-15T17:47:04;99161.28;;;5.65;80.69
74982;BME280;63532;50.766;18.944;2024-02-15T17:50:13;99166.72;;;5.64;80.69
74982;BME280;63532;50.766;18.944;2024-02-15T17:53:19;99171.22;;;5.63;80.68
74982;BME280;63532;50.766;18.944;2024-02-15T17:56:27;99172.06;;;5.64;80.65
74982;BME280;63532;50.766;18.944;2024-02-15T17:59:33;99178.22;;;5.64;80.91
74982;BME280;63532;50.766;18.944;2024-02-15T18:02:37;99180.06;;;5.64;81.04
74982;BME280;63532;50.766;18.944;2024-02-15T18:05:43;99183.56;;;5.64;81.04
74982;BME280;63532;50.766;18.944;2024-02-15T18:08:49;99184.41;;;5.65;80.82
74982;BME280;63532;50.766;18.944;2024-02-15T18:11:54;99185.13;;;5.67;81.07
74982;BME280;63532;50.766;18.944;2024-02-15T18:15:01;99184.16;;;5.68;80.92
74982;BME280;63532;50.766;18.944;2024-02-15T18:18:06;99180.53;;;5.69;80.95
74982;BME280;63532;50.766;18.944;2024-02-15T18:21:11;99182.22;;;5.70;80.76
74982;BME280;63532;50.766;18.944;2024-02-15T18:24:15;99187.31;;;5.73;81.21
74982;BME280;63532;50.766;18.944;2024-02-15T18:27:20;99194.34;;;5.74;81.06
74982;BME280;63532;50.766;18.944;2024-02-15T18:30:27;99183.44;;;5.77;80.88
74982;BME280;63532;50.766;18.944;2024-02-15T18:33:36;99187.69;;;5.79;80.92
74982;BME280;63532;50.766;18.944;2024-02-15T18:36:42;99183.19;;;5.80;80.82
74982;BME280;63532;50.766;18.944;2024-02-15T18:39:51;99185.63;;;5.83;81.24
74982;BME280;63532;50.766;18.944;2024-02-15T18:42:55;99188.00;;;5.86;81.17
74982;BME280;63532;50.766;18.944;2024-02-15T18:46:02;99178.06;;;5.88;80.96
74982;BME280;63532;50.766;18.944;2024-02-15T18:49:08;99185.59;;;5.94;80.82
74982;BME280;63532;50.766;18.944;2024-02-15T18:52:33;99184.13;;;6.01;81.20
74982;BME280;63532;50.766;18.944;2024-02-15T18:55:37;99183.38;;;6.10;80.92
74982;BME280;63532;50.766;18.944;2024-02-15T18:58:42;99173.59;;;6.32;81.06
74982;BME280;63532;50.766;18.944;2024-02-15T19:01:48;99169.84;;;6.55;81.03
74982;BME280;63532;50.766;18.944;2024-02-15T19:04:54;99175.63;;;6.81;81.42
74982;BME280;63532;50.766;18.944;2024-02-15T19:07:58;99167.84;;;6.99;81.06
74982;BME280;63532;50.766;18.944;2024-02-15T19:11:04;99163.44;;;7.09;80.62
74982;BME280;63532;50.766;18.944;2024-02-15T19:14:08;99170.19;;;7.13;80.44
74982;BME280;63532;50.766;18.944;2024-02-15T19:17:19;99176.53;;;7.21;80.79
74982;BME280;63532;50.766;18.944;2024-02-15T19:20:24;99171.06;;;7.23;80.34
74982;BME280;63532;50.766;18.944;2024-02-15T19:23:28;99172.75;;;7.24;80.37
74982;BME280;63532;50.766;18.944;2024-02-15T19:26:33;99172.50;;;7.27;81.06
74982;BME280;63532;50.766;18.944;2024-02-15T19:29:42;99176.47;;;7.33;80.74
74982;BME280;63532;50.766;18.944;2024-02-15T19:32:49;99166.50;;;7.35;80.43
74982;BME280;63532;50.766;18.944;2024-02-15T19:35:54;99164.69;;;7.35;80.69
74982;BME280;63532;50.766;18.944;2024-02-15T19:38:58;99156.50;;;7.37;80.78
74982;BME280;63532;50.766;18.944;2024-02-15T19:42:11;99164.81;;;7.34;80.90
74982;BME280;63532;50.766;18.944;2024-02-15T19:45:16;99157.50;;;7.36;81.21
74982;BME280;63532;50.766;18.944;2024-02-15T19:48:26;99156.81;;;7.43;80.74
74982;BME280;63532;50.766;18.944;2024-02-15T19:51:30;99156.28;;;7.49;81.29
74982;BME280;63532;50.766;18.944;2024-02-15T19:54:35;99162.47;;;7.50;80.70
74982;BME280;63532;50.766;18.944;2024-02-15T19:57:40;99165.53;;;7.45;80.92
74982;BME280;63532;50.766;18.944;2024-02-15T20:00:44;99163.84;;;7.44;81.32
74982;BME280;63532;50.766;18.944;2024-02-15T20:03:53;99158.75;;;7.41;80.98
74982;BME280;63532;50.766;18.944;2024-02-15T20:06:59;99167.34;;;7.35;80.91
74982;BME280;63532;50.766;18.944;2024-02-15T20:10:05;99162.41;;;7.31;81.06
74982;BME280;63532;50.766;18.944;2024-02-15T20:13:11;99162.41;;;7.31;81.10
74982;BME280;63532;50.766;18.944;2024-02-15T20:16:15;99160.13;;;7.26;81.27
74982;BME280;63532;50.766;18.944;2024-02-15T20:19:26;99165.41;;;7.16;81.39
74982;BME280;63532;50.766;18.944;2024-02-15T20:22:30;99164.53;;;7.06;81.25
74982;BME280;63532;50.766;18.944;2024-02-15T20:25:35;99161.09;;;6.95;81.55
74982;BME280;63532;50.766;18.944;2024-02-15T20:28:39;99168.94;;;6.86;81.41
74982;BME280;63532;50.766;18.944;2024-02-15T20:31:43;99167.22;;;6.85;81.79
74982;BME280;63532;50.766;18.944;2024-02-15T20:34:51;99166.50;;;6.83;81.56
74982;BME280;63532;50.766;18.944;2024-02-15T20:37:55;99167.53;;;6.71;81.66
74982;BME280;63532;50.766;18.944;2024-02-15T20:41:00;99164.38;;;6.57;82.31
74982;BME280;63532;50.766;18.944;2024-02-15T20:44:08;99171.53;;;6.56;81.90
74982;BME280;63532;50.766;18.944;2024-02-15T20:47:13;99176.13;;;6.54;82.01
